createdAt,value
2019-05-15T00:02:13.187Z,96.20
2019-05-15T00:04:41.047Z,96.20
2019-05-15T00:07:08.972Z,96.30
2019-05-15T00:09:39.600Z,96.40
2019-05-15T00:12:05.830Z,96.50
2019-05-15T00:14:33.334Z,96.50
2019-05-15T00:17:00.896Z,96.50
2019-05-15T00:19:28.656Z,96.60
2019-05-15T00:21:58.416Z,96.90
2019-05-15T00:24:25.445Z,97.00
2019-05-15T00:26:53.201Z,97.60
2019-05-15T00:29:20.952Z,97.90
2019-05-15T00:31:48.666Z,97.60
2019-05-15T00:34:18.261Z,97.50
2019-05-15T00:36:48.730Z,97.50
2019-05-15T00:39:16.098Z,97.30
2019-05-15T00:41:51.423Z,97.50
2019-05-15T00:44:13.235Z,97.50
2019-05-15T00:46:40.685Z,97.60
2019-05-15T00:49:08.672Z,97.60
2019-05-15T00:51:36.384Z,98.00
2019-05-15T00:54:08.282Z,98.10
2019-05-15T00:56:35.423Z,98.10
2019-05-15T00:59:02.988Z,97.80
2019-05-15T01:01:30.376Z,97.80
2019-05-15T01:03:58.725Z,97.70
2019-05-15T01:06:28.490Z,97.80
2019-05-15T01:08:56.254Z,98.00
2019-05-15T01:11:23.942Z,98.20
2019-05-15T01:13:51.726Z,98.10
2019-05-15T01:16:19.182Z,98.10
2019-05-15T01:18:48.975Z,98.00
2019-05-15T01:21:16.052Z,98.00
2019-05-15T01:23:43.473Z,98.20
2019-05-15T01:26:10.865Z,98.20
2019-05-15T01:28:38.595Z,98.20
2019-05-15T01:31:08.302Z,98.50
2019-05-15T01:33:35.752Z,98.20
2019-05-15T01:36:03.437Z,98.30
2019-05-15T01:38:30.989Z,98.20
2019-05-15T01:40:59.156Z,98.20
2019-05-15T01:43:28.916Z,98.10
2019-05-15T01:45:56.174Z,98.10
2019-05-15T01:48:23.954Z,98.10
2019-05-15T01:50:51.385Z,98.20
2019-05-15T01:53:18.917Z,98.00
2019-05-15T01:55:48.304Z,98.20
2019-05-15T01:58:18.698Z,98.20
2019-05-15T02:00:48.201Z,98.50
2019-05-15T02:03:15.566Z,98.40
2019-05-15T02:05:43.347Z,98.40
2019-05-15T02:08:10.813Z,98.30
2019-05-15T02:10:39.425Z,98.20
2019-05-15T02:13:08.637Z,98.30
2019-05-15T02:15:39.148Z,98.50
2019-05-15T02:18:08.190Z,98.70
2019-05-15T02:20:35.409Z,98.50
2019-05-15T02:23:03.167Z,98.50
2019-05-15T02:25:30.657Z,98.60
2019-05-15T02:27:58.707Z,98.50
2019-05-15T02:30:31.780Z,98.50
2019-05-15T02:32:58.696Z,98.40
2019-05-15T02:35:25.134Z,98.70
2019-05-15T02:37:52.582Z,98.60
2019-05-15T02:40:20.101Z,98.80
2019-05-15T02:42:49.316Z,98.70
2019-05-15T02:45:19.575Z,98.80
2019-05-15T02:47:48.719Z,98.90
2019-05-15T02:50:16.224Z,98.90
2019-05-15T02:52:45.449Z,98.80
2019-05-15T02:55:13.401Z,98.80
2019-05-15T02:57:41.223Z,98.90
2019-05-15T03:00:10.947Z,98.90
2019-05-15T03:02:41.491Z,98.90
2019-05-15T03:05:09.356Z,98.90
2019-05-15T03:07:40.112Z,98.90
2019-05-15T03:10:09.416Z,98.90
2019-05-15T03:12:40.149Z,99.00
2019-05-15T03:15:09.732Z,99.00
2019-05-15T03:17:39.715Z,99.10
2019-05-15T03:20:05.536Z,99.10
2019-05-15T03:22:33.528Z,99.20
2019-05-15T03:25:01.315Z,99.10
2019-05-15T03:27:30.378Z,99.20
2019-05-15T03:29:59.360Z,99.20
2019-05-15T03:32:35.932Z,99.20
2019-05-15T03:35:03.548Z,99.40
2019-05-15T03:37:32.595Z,99.40
2019-05-15T03:39:55.499Z,99.40
2019-05-15T03:42:23.334Z,99.10
2019-05-15T03:44:50.829Z,99.30
2019-05-15T03:47:19.496Z,99.30
2019-05-15T03:49:49.428Z,99.40
2019-05-15T03:52:18.973Z,99.50
2019-05-15T03:54:49.276Z,99.90
2019-05-15T03:57:20.105Z,99.80
2019-05-15T03:59:45.474Z,99.80
2019-05-15T04:02:13.353Z,99.70
2019-05-15T04:04:41.704Z,99.80
2019-05-15T04:07:09.525Z,99.90
2019-05-15T04:09:38.726Z,99.80
2019-05-15T04:12:09.197Z,99.70
2019-05-15T04:14:39.236Z,99.70
2019-05-15T04:17:05.212Z,99.90
2019-05-15T04:19:33.169Z,99.80
2019-05-15T04:22:00.958Z,99.90
2019-05-15T04:24:30.519Z,99.70
2019-05-15T04:26:59.906Z,99.90
2019-05-15T04:29:29.018Z,99.90
2019-05-15T04:32:02.508Z,99.90
2019-05-15T04:34:28.819Z,99.90
2019-05-15T04:36:58.562Z,99.90
2019-05-15T04:39:25.458Z,99.90
2019-05-15T04:41:53.004Z,99.90
2019-05-15T04:44:20.521Z,99.90
2019-05-15T04:46:49.824Z,99.90
2019-05-15T04:49:19.327Z,99.90
2019-05-15T04:51:49.725Z,99.90
2019-05-15T04:54:16.588Z,99.90
2019-05-15T04:56:44.118Z,99.90
2019-05-15T04:59:11.915Z,99.90
2019-05-15T05:01:40.590Z,99.90
2019-05-15T05:04:09.417Z,99.90
2019-05-15T05:06:38.883Z,99.90
2019-05-15T05:09:09.283Z,99.90
2019-05-15T05:11:38.305Z,99.90
2019-05-15T05:14:08.468Z,99.90
2019-05-15T05:16:38.989Z,99.90
2019-05-15T05:19:05.313Z,99.90
2019-05-15T05:21:33.331Z,99.90
2019-05-15T05:24:01.094Z,99.90
2019-05-15T05:26:29.345Z,99.90
2019-05-15T05:29:01.469Z,99.90
2019-05-15T05:31:29.055Z,99.90
2019-05-15T05:33:57.776Z,99.90
2019-05-15T05:36:27.804Z,99.90
2019-05-15T05:38:55.166Z,99.90
2019-05-15T05:41:23.290Z,99.90
2019-05-15T05:43:50.720Z,99.90
2019-05-15T05:46:18.572Z,99.90
2019-05-15T05:48:46.152Z,99.80
2019-05-15T05:51:14.497Z,99.60
2019-05-15T05:53:42.223Z,99.60
2019-05-15T05:56:09.696Z,99.60
2019-05-15T05:58:38.958Z,99.50
2019-05-15T06:01:09.388Z,99.50
2019-05-15T06:03:38.566Z,99.10
2019-05-15T06:06:05.919Z,97.20
2019-05-15T06:08:33.529Z,97.20
2019-05-15T06:11:01.064Z,97.10
2019-05-15T06:13:29.100Z,97.50
2019-05-15T06:15:58.891Z,97.60
2019-05-15T06:18:28.197Z,96.80
2019-05-15T06:20:58.409Z,96.20
2019-05-15T06:23:26.342Z,94.80
2019-05-15T06:25:54.362Z,94.80
2019-05-15T06:28:21.822Z,94.70
2019-05-15T06:30:49.651Z,94.20
2019-05-15T06:33:18.776Z,93.80
2019-05-15T06:35:48.865Z,93.50
2019-05-15T06:38:15.831Z,92.70
2019-05-15T06:40:43.769Z,92.80
2019-05-15T06:43:11.558Z,93.00
2019-05-15T06:45:39.545Z,93.10
2019-05-15T06:48:09.515Z,92.10
2019-05-15T06:50:38.400Z,92.30
2019-05-15T06:53:10.443Z,92.50
2019-05-15T06:55:35.801Z,92.10
2019-05-15T06:58:03.526Z,91.80
2019-05-15T07:00:31.090Z,92.20
2019-05-15T07:02:59.179Z,92.60
2019-05-15T07:05:29.323Z,90.60
2019-05-15T07:07:58.120Z,90.00
2019-05-15T07:10:25.492Z,89.60
2019-05-15T07:12:53.443Z,88.50
2019-05-15T07:15:27.846Z,87.00
2019-05-15T07:17:57.878Z,85.70
2019-05-15T07:20:28.347Z,80.10
2019-05-15T07:22:55.093Z,75.70
2019-05-15T07:25:22.597Z,79.00
2019-05-15T07:27:50.054Z,71.70
2019-05-15T07:30:18.738Z,70.10
2019-05-15T07:32:48.416Z,68.30
2019-05-15T07:35:18.975Z,69.10
2019-05-15T07:37:47.767Z,69.50
2019-05-15T07:40:15.685Z,68.80
2019-05-15T07:42:43.191Z,67.80
2019-05-15T07:45:11.303Z,68.30
2019-05-15T07:47:39.007Z,65.80
2019-05-15T07:50:08.896Z,67.30
2019-05-15T07:52:39.450Z,65.00
2019-05-15T07:55:08.762Z,65.90
2019-05-15T07:57:39.248Z,65.70
2019-05-15T08:00:08.340Z,66.20
2019-05-15T08:02:37.834Z,63.00
2019-05-15T08:05:08.464Z,61.40
2019-05-15T08:07:38.614Z,61.70
2019-05-15T08:10:08.741Z,62.70
2019-05-15T08:12:39.284Z,63.40
2019-05-15T08:15:09.154Z,61.20
2019-05-15T08:17:56.056Z,61.20
2019-05-15T08:20:10.414Z,60.90
2019-05-15T08:22:38.489Z,62.80
2019-05-15T08:25:11.320Z,61.80
2019-05-15T08:27:38.263Z,60.90
2019-05-15T08:30:08.747Z,62.70
2019-05-15T08:32:38.661Z,63.60
2019-05-15T08:35:08.094Z,63.70
2019-05-15T08:37:38.253Z,60.40
2019-05-15T08:40:05.673Z,60.00
2019-05-15T08:42:33.758Z,59.40
2019-05-15T08:45:01.345Z,57.80
2019-05-15T08:47:29.799Z,58.30
2019-05-15T08:49:57.948Z,59.50
2019-05-15T08:52:28.145Z,59.70
2019-05-15T08:54:55.462Z,59.80
2019-05-15T08:57:23.498Z,58.90
2019-05-15T08:59:50.935Z,56.90
2019-05-15T09:02:18.996Z,55.60
2019-05-15T09:04:48.585Z,54.90
2019-05-15T09:07:18.083Z,55.80
2019-05-15T09:09:45.415Z,55.70
2019-05-15T09:12:13.222Z,58.20
2019-05-15T09:14:40.910Z,55.80
2019-05-15T09:17:08.831Z,58.10
2019-05-15T09:19:38.643Z,57.30
2019-05-15T09:22:05.645Z,56.40
2019-05-15T09:24:33.182Z,54.00
2019-05-15T09:27:00.921Z,54.80
2019-05-15T09:29:28.627Z,56.40
2019-05-15T09:31:58.650Z,53.10
2019-05-15T09:34:25.658Z,53.70
2019-05-15T09:36:53.407Z,53.40
2019-05-15T09:39:20.812Z,54.10
2019-05-15T09:41:48.786Z,54.50
2019-05-15T09:44:21.711Z,53.10
2019-05-15T09:46:48.829Z,55.10
2019-05-15T09:49:18.209Z,56.00
2019-05-15T09:51:45.360Z,53.80
2019-05-15T09:54:12.865Z,54.00
2019-05-15T09:56:40.372Z,54.20
2019-05-15T09:59:08.904Z,54.80
2019-05-15T10:01:39.265Z,54.20
2019-05-15T10:04:08.136Z,55.10
2019-05-15T10:06:35.451Z,54.60
2019-05-15T10:09:05.441Z,53.50
2019-05-15T10:11:32.849Z,53.80
2019-05-15T10:14:00.306Z,54.60
2019-05-15T10:16:27.787Z,52.90
2019-05-15T10:18:58.025Z,52.50
2019-05-15T10:21:29.647Z,52.60
2019-05-15T10:23:54.253Z,52.30
2019-05-15T10:26:21.699Z,51.80
2019-05-15T10:28:49.737Z,52.20
2019-05-15T10:31:19.514Z,51.40
2019-05-15T10:33:48.923Z,50.80
2019-05-15T10:36:18.678Z,50.70
2019-05-15T10:38:45.735Z,51.70
2019-05-15T10:41:15.285Z,55.30
2019-05-15T10:43:46.942Z,52.30
2019-05-15T10:46:13.851Z,51.60
2019-05-15T10:48:41.623Z,49.50
2019-05-15T10:51:10.229Z,48.30
2019-05-15T10:53:39.086Z,46.80
2019-05-15T10:56:08.732Z,47.10
2019-05-15T10:58:36.087Z,48.80
2019-05-15T11:01:04.154Z,48.00
2019-05-15T11:03:34.729Z,48.00
2019-05-15T11:06:01.521Z,46.30
2019-05-15T11:08:29.214Z,46.30
2019-05-15T11:10:58.528Z,47.50
2019-05-15T11:13:28.668Z,45.80
2019-05-15T11:15:55.943Z,45.00
2019-05-15T11:18:23.819Z,46.50
2019-05-15T11:20:51.766Z,46.80
2019-05-15T11:23:20.269Z,47.10
2019-05-15T11:25:48.924Z,47.90
2019-05-15T11:28:17.136Z,46.00
2019-05-15T11:30:44.650Z,44.10
2019-05-15T11:33:12.890Z,48.20
2019-05-15T11:35:56.775Z,47.20
2019-05-15T11:38:10.977Z,46.90
2019-05-15T11:40:39.038Z,45.10
2019-05-15T11:43:08.483Z,45.50
2019-05-15T11:45:39.064Z,46.90
2019-05-15T11:48:06.049Z,46.90
2019-05-15T11:50:33.814Z,46.20
2019-05-15T11:53:01.286Z,44.10
2019-05-15T11:55:29.264Z,45.30
2019-05-15T11:57:59.246Z,46.30
2019-05-15T12:00:30.025Z,46.90
2019-05-15T12:02:58.347Z,46.80
2019-05-15T12:05:25.409Z,47.70
2019-05-15T12:07:52.944Z,47.20
2019-05-15T12:10:20.657Z,45.70
2019-05-15T12:12:49.647Z,44.50
2019-05-15T12:15:19.155Z,46.90
2019-05-15T12:17:48.446Z,45.10
2019-05-15T12:20:19.036Z,47.70
2019-05-15T12:22:48.310Z,47.80
2019-05-15T12:25:16.010Z,47.40
2019-05-15T12:27:43.824Z,47.60
2019-05-15T12:30:12.443Z,47.30
2019-05-15T12:32:41.396Z,48.20
2019-05-15T12:35:09.345Z,46.20
2019-05-15T12:37:39.780Z,46.90
2019-05-15T13:00:07.449Z,46.70
2019-05-15T13:02:35.106Z,44.80
2019-05-15T13:05:03.305Z,44.10
2019-05-15T13:07:31.168Z,44.60
2019-05-15T13:09:58.842Z,45.70
2019-05-15T13:12:28.833Z,45.60
2019-05-15T13:14:58.887Z,46.40
2019-05-15T13:17:26.033Z,46.10
2019-05-15T13:19:53.423Z,46.00
2019-05-15T13:22:24.664Z,45.50
2019-05-15T13:24:50.494Z,45.70
2019-05-15T13:27:18.407Z,46.00
2019-05-15T13:29:46.015Z,45.40
2019-05-15T13:32:13.656Z,43.70
2019-05-15T13:34:41.318Z,45.90
2019-05-15T13:37:09.152Z,46.30
2019-05-15T13:39:38.916Z,46.10
2019-05-15T13:42:05.976Z,47.60
2019-05-15T13:44:33.443Z,47.20
2019-05-15T13:47:01.151Z,48.20
2019-05-15T13:49:29.106Z,44.80
2019-05-15T13:51:59.323Z,46.40
2019-05-15T13:54:28.625Z,46.30
2019-05-15T13:56:58.071Z,47.40
2019-05-15T13:59:28.546Z,48.00
2019-05-15T14:01:55.535Z,46.00
2019-05-15T14:04:23.303Z,45.40
2019-05-15T14:06:51.117Z,45.70
2019-05-15T14:09:18.592Z,43.60
2019-05-15T14:11:49.210Z,44.70
2019-05-15T14:14:15.684Z,45.00
2019-05-15T14:16:43.351Z,46.40
2019-05-15T14:19:11.247Z,45.50
2019-05-15T14:21:39.327Z,45.50
2019-05-15T14:24:09.006Z,44.60
2019-05-15T14:26:36.579Z,43.50
2019-05-15T14:29:05.690Z,44.80
2019-05-15T14:31:36.412Z,43.80
2019-05-15T14:34:03.276Z,43.90
2019-05-15T14:36:30.808Z,44.90
2019-05-15T14:38:58.825Z,43.80
2019-05-15T14:41:29.077Z,44.00
2019-05-15T14:43:57.871Z,41.30
2019-05-15T14:46:25.902Z,42.50
2019-05-15T14:48:53.542Z,42.80
2019-05-15T14:51:21.266Z,42.80
2019-05-15T14:53:49.192Z,44.00
2019-05-15T14:56:18.551Z,42.70
2019-05-15T14:58:48.022Z,41.70
2019-05-15T15:01:15.725Z,41.80
2019-05-15T15:03:43.815Z,43.00
2019-05-15T15:06:11.402Z,41.50
2019-05-15T15:08:39.254Z,40.90
2019-05-15T15:11:08.745Z,40.30
2019-05-15T15:13:38.166Z,40.80
2019-05-15T15:16:08.183Z,40.20
2019-05-15T15:18:35.393Z,41.00
2019-05-15T15:21:02.920Z,40.50
2019-05-15T15:23:31.151Z,39.40
2019-05-15T15:25:58.769Z,40.30
2019-05-15T15:28:26.675Z,40.60
2019-05-15T15:30:54.504Z,40.60
2019-05-15T15:33:22.357Z,41.50
2019-05-15T15:35:50.544Z,42.90
2019-05-15T15:38:26.819Z,40.90
2019-05-15T15:40:48.214Z,41.20
2019-05-15T15:43:15.949Z,40.70
2019-05-15T15:45:43.431Z,39.50
2019-05-15T15:48:11.201Z,40.70
2019-05-15T15:50:38.748Z,40.10
2019-05-15T15:53:08.901Z,38.40
2019-05-15T15:55:38.268Z,37.90
2019-05-15T15:58:05.302Z,37.90
2019-05-15T16:00:32.809Z,38.10
2019-05-15T16:03:00.516Z,39.30
2019-05-15T16:05:29.077Z,39.30
2019-05-15T16:07:59.067Z,39.00
2019-05-15T16:10:28.260Z,40.00
2019-05-15T16:12:58.201Z,39.80
2019-05-15T16:15:25.911Z,38.40
2019-05-15T16:17:54.491Z,37.60
2019-05-15T16:20:22.062Z,36.80
2019-05-15T16:22:49.887Z,37.30
2019-05-15T16:25:18.422Z,36.20
2019-05-15T16:27:46.174Z,34.80
2019-05-15T16:30:14.277Z,34.60
2019-05-15T16:32:41.838Z,34.10
2019-05-15T16:35:09.740Z,35.00
2019-05-15T16:37:38.884Z,33.10
2019-05-15T16:40:07.174Z,33.10
2019-05-15T16:42:34.719Z,32.30
2019-05-15T16:45:03.213Z,32.70
2019-05-15T16:47:31.043Z,31.60
2019-05-15T16:49:58.534Z,31.30
2019-05-15T16:52:30.538Z,31.40
2019-05-15T16:54:58.094Z,31.20
2019-05-15T16:57:28.032Z,30.80
2019-05-15T16:59:55.849Z,31.30
2019-05-15T17:02:23.439Z,31.10
2019-05-15T17:04:50.981Z,31.40
2019-05-15T17:07:18.872Z,29.40
2019-05-15T17:09:48.099Z,28.60
2019-05-15T17:12:15.730Z,28.20
2019-05-15T17:14:43.690Z,28.50
2019-05-15T17:17:11.229Z,28.30
2019-05-15T17:19:39.091Z,27.80
2019-05-15T17:22:09.295Z,28.40
2019-05-15T17:24:38.750Z,28.10
2019-05-15T17:27:10.291Z,28.70
2019-05-15T17:29:38.359Z,28.30
2019-05-15T17:32:05.350Z,28.00
2019-05-15T17:34:33.351Z,28.20
2019-05-15T17:37:01.270Z,27.80
2019-05-15T17:39:36.617Z,27.40
2019-05-15T17:41:59.347Z,27.10
2019-05-15T17:44:28.692Z,27.80
2019-05-15T17:46:58.479Z,27.30
2019-05-15T17:49:28.064Z,27.90
2019-05-15T17:51:55.652Z,27.50
2019-05-15T17:54:23.491Z,27.60
2019-05-15T17:56:51.391Z,27.40
2019-05-15T17:59:19.763Z,27.30
2019-05-15T18:01:49.041Z,27.80
2019-05-15T18:04:18.926Z,28.80
2019-05-15T18:06:48.424Z,29.30
2019-05-15T18:09:16.185Z,29.20
2019-05-15T18:11:44.746Z,29.30
2019-05-15T18:14:12.555Z,30.00
2019-05-15T18:16:40.259Z,32.00
2019-05-15T18:19:08.520Z,32.30
2019-05-15T18:21:38.345Z,32.20
2019-05-15T18:24:08.770Z,32.30
2019-05-15T18:26:38.507Z,31.70
2019-05-15T18:29:05.580Z,32.60
2019-05-15T18:31:33.731Z,33.40
2019-05-15T18:34:01.504Z,34.80
2019-05-15T18:36:28.894Z,35.50
2019-05-15T18:38:58.844Z,36.80
2019-05-15T18:41:28.373Z,37.30
2019-05-15T18:43:57.757Z,37.90
2019-05-15T18:46:25.490Z,39.10
2019-05-15T18:48:53.303Z,39.40
2019-05-15T18:51:21.412Z,39.60
2019-05-15T18:53:49.353Z,40.00
2019-05-15T18:56:18.782Z,41.20
2019-05-15T18:58:48.517Z,41.70
2019-05-15T19:01:17.818Z,41.90
2019-05-15T19:03:46.122Z,42.30
2019-05-15T19:06:13.989Z,43.00
2019-05-15T19:08:41.775Z,44.10
2019-05-15T19:11:10.213Z,43.90
2019-05-15T19:13:41.063Z,44.40
2019-05-15T19:16:09.041Z,45.10
2019-05-15T19:18:38.355Z,45.80
2019-05-15T19:21:07.954Z,45.70
2019-05-15T19:23:38.099Z,46.10
2019-05-15T19:26:05.654Z,46.20
2019-05-15T19:28:33.410Z,46.80
2019-05-15T19:31:01.041Z,47.10
2019-05-15T19:33:37.049Z,47.70
2019-05-15T19:36:01.856Z,47.90
2019-05-15T19:38:28.826Z,48.10
2019-05-15T19:41:02.305Z,48.10
2019-05-15T19:43:26.048Z,48.50
2019-05-15T19:45:53.960Z,48.80
2019-05-15T19:48:22.163Z,49.40
2019-05-15T19:50:49.758Z,49.70
2019-05-15T19:53:18.988Z,49.70
2019-05-15T19:55:48.358Z,50.00
2019-05-15T19:58:18.244Z,50.10
2019-05-15T20:00:47.959Z,50.40
2019-05-15T20:03:17.723Z,50.70
2019-05-15T20:05:48.467Z,50.70
2019-05-15T20:08:18.320Z,51.40
2019-05-15T20:10:47.878Z,51.50
2019-05-15T20:13:17.949Z,51.20
2019-05-15T20:15:48.377Z,51.20
2019-05-15T20:18:15.343Z,51.20
2019-05-15T20:20:43.080Z,51.20
2019-05-15T20:23:10.668Z,51.60
2019-05-15T20:25:38.368Z,52.20
2019-05-15T20:28:08.474Z,52.40
2019-05-15T20:30:36.024Z,52.70
2019-05-15T20:33:03.972Z,52.50
2019-05-15T20:35:31.876Z,52.90
2019-05-15T20:38:00.000Z,53.70
2019-05-15T20:40:28.201Z,54.70
2019-05-15T20:42:58.964Z,54.00
2019-05-15T20:45:25.753Z,54.60
2019-05-15T20:47:53.298Z,54.40
2019-05-15T20:50:21.417Z,55.10
2019-05-15T20:52:49.247Z,55.80
2019-05-15T20:55:17.067Z,55.50
2019-05-15T20:57:44.545Z,56.00
2019-05-15T21:00:13.945Z,55.90
2019-05-15T21:02:41.804Z,56.00
2019-05-15T21:05:19.962Z,56.40
2019-05-15T21:07:49.400Z,56.80
2019-05-15T21:10:21.300Z,57.10
2019-05-15T21:12:48.594Z,57.70
2019-05-15T21:15:17.017Z,57.70
2019-05-15T21:17:45.386Z,57.90
2019-05-15T21:20:15.032Z,58.30
2019-05-15T21:22:42.590Z,58.30
2019-05-15T21:25:10.716Z,58.40
2019-05-15T21:27:42.061Z,59.20
2019-05-15T21:30:09.061Z,59.50
2019-05-15T21:32:38.343Z,59.60
2019-05-15T21:35:08.948Z,59.60
2019-05-15T21:37:38.262Z,59.90
2019-05-15T21:40:08.189Z,60.30
2019-05-15T21:42:38.921Z,61.00
2019-05-15T21:45:05.847Z,61.60
2019-05-15T21:47:33.381Z,62.00
2019-05-15T21:50:00.940Z,62.80
2019-05-15T21:52:29.376Z,63.70
2019-05-15T21:54:59.412Z,63.50
2019-05-15T21:57:35.699Z,64.20
2019-05-15T21:59:57.816Z,64.40
2019-05-15T22:02:25.963Z,65.50
2019-05-15T22:04:56.023Z,67.20
2019-05-15T22:07:23.194Z,67.50
2019-05-15T22:09:50.815Z,68.60
2019-05-15T22:12:18.510Z,69.50
2019-05-15T22:14:49.037Z,70.70
2019-05-15T22:17:18.679Z,71.30
2019-05-15T22:19:49.045Z,72.00
2019-05-15T22:22:17.994Z,72.40
2019-05-15T22:24:45.579Z,72.70
2019-05-15T22:27:13.798Z,73.40
2019-05-15T22:29:41.366Z,73.50
2019-05-15T22:32:09.125Z,74.10
2019-05-15T22:34:36.623Z,74.50
2019-05-15T22:37:04.304Z,75.20
2019-05-15T22:39:31.830Z,75.70
2019-05-15T22:41:59.584Z,76.20
2019-05-15T22:44:28.188Z,77.60
2019-05-15T22:46:57.992Z,77.70
2019-05-15T22:49:25.103Z,78.80
2019-05-15T22:51:53.092Z,79.10
2019-05-15T22:54:20.853Z,80.50
2019-05-15T22:56:48.526Z,81.50
2019-05-15T22:59:17.247Z,81.90
2019-05-15T23:01:45.083Z,82.40
2019-05-15T23:04:12.621Z,83.30
2019-05-15T23:06:40.161Z,84.10
2019-05-15T23:09:07.806Z,85.20
2019-05-15T23:11:35.215Z,86.60
2019-05-15T23:14:02.871Z,86.50
2019-05-15T23:16:30.305Z,86.80
2019-05-15T23:19:00.306Z,87.40
2019-05-15T23:21:28.776Z,88.40
2019-05-15T23:23:56.473Z,88.80
2019-05-15T23:26:24.344Z,89.60
2019-05-15T23:28:51.979Z,90.00
2019-05-15T23:31:19.872Z,90.20
2019-05-15T23:33:48.142Z,90.50
2019-05-15T23:36:17.896Z,90.80
2019-05-15T23:38:47.788Z,91.50
2019-05-15T23:41:14.768Z,91.80
2019-05-15T23:43:42.526Z,92.20
2019-05-15T23:46:10.296Z,92.20
2019-05-15T23:48:38.705Z,92.40
2019-05-15T23:51:08.308Z,92.40
2019-05-15T23:53:35.590Z,92.70
2019-05-15T23:56:03.387Z,92.50
2019-05-15T23:58:30.900Z,92.50
